Time;durP1;ratioP1;P1;durP2;ratioP2;P2;SDS_P1;SDS_P2;PMS_P1;PMS_P2;Temp;Humidity;BMP_temperature;BMP_pressure;BME280_temperature;BME280_humidity;BME280_pressure;Samples;Min_cycle;Max_cycle;Signal;HPM_P1;HPM_P2
2021/10/03 00:01:27;;;;;;;7.20;5.00;;;12.60;80.20;;;;;;5092180;28;20275;-65
2021/10/03 00:03:55;;;;;;;4.97;4.30;;;12.60;81.00;;;;;;5091904;28;20666;-64
2021/10/03 00:06:22;;;;;;;6.65;5.35;;;12.60;81.10;;;;;;5091880;28;20189;-64
2021/10/03 00:08:53;;;;;;;5.43;4.47;;;12.60;82.40;;;;;;5091933;28;20220;-65
2021/10/03 00:11:20;;;;;;;8.52;5.22;;;12.60;81.00;;;;;;5095202;28;20180;-64
2021/10/03 00:13:49;;;;;;;9.23;4.93;;;12.60;79.80;;;;;;5096593;28;20589;-64
2021/10/03 00:16:16;;;;;;;10.02;4.80;;;12.60;80.70;;;;;;5096559;28;20193;-65
2021/10/03 00:18:44;;;;;;;5.05;4.30;;;12.50;81.10;;;;;;5096485;28;20279;-64
2021/10/03 00:21:11;;;;;;;6.32;4.90;;;12.50;81.20;;;;;;5096553;28;20195;-64
2021/10/03 00:23:39;;;;;;;5.43;4.35;;;12.50;80.60;;;;;;5096296;28;20232;-64
2021/10/03 00:26:06;;;;;;;9.30;4.00;;;12.40;80.90;;;;;;5096247;28;20189;-64
2021/10/03 00:28:33;;;;;;;5.88;4.30;;;12.40;80.70;;;;;;5096026;28;20307;-64
2021/10/03 00:31:02;;;;;;;5.35;4.35;;;12.40;81.10;;;;;;5096095;28;20716;-64
2021/10/03 00:33:29;;;;;;;5.63;4.22;;;12.40;81.50;;;;;;5096082;28;20280;-64
2021/10/03 00:35:56;;;;;;;5.85;4.47;;;12.40;81.30;;;;;;5096222;28;20193;-64
2021/10/03 00:38:23;;;;;;;7.00;4.80;;;12.50;81.20;;;;;;5096667;28;20216;-63
2021/10/03 00:40:50;;;;;;;5.78;4.45;;;12.50;81.20;;;;;;5096096;28;20280;-65
2021/10/03 00:43:22;;;;;;;5.47;4.65;;;12.40;80.30;;;;;;5096112;28;20196;-64
2021/10/03 00:45:49;;;;;;;6.95;5.20;;;12.40;79.40;;;;;;5096129;28;20236;-65
2021/10/03 00:48:17;;;;;;;7.43;5.05;;;12.30;79.30;;;;;;5096067;28;20279;-64
2021/10/03 00:50:46;;;;;;;5.85;4.45;;;12.30;79.80;;;;;;5095999;28;20280;-64
2021/10/03 00:53:14;;;;;;;6.32;4.35;;;12.30;79.50;;;;;;5095991;28;20193;-64
2021/10/03 00:55:42;;;;;;;7.75;4.93;;;12.30;79.40;;;;;;5096062;28;20193;-64
2021/10/03 00:58:10;;;;;;;7.90;5.20;;;12.30;79.60;;;;;;5095500;28;20275;-64
2021/10/03 01:00:40;;;;;;;4.80;4.10;;;12.30;80.00;;;;;;5095867;28;20586;-64
2021/10/03 01:03:08;;;;;;;5.63;4.35;;;12.30;80.50;;;;;;5095997;28;20284;-64
2021/10/03 01:05:40;;;;;;;9.65;3.95;;;12.30;80.50;;;;;;5095510;28;20219;-64
2021/10/03 01:08:08;;;;;;;5.07;3.60;;;12.30;79.50;;;;;;5095857;28;20189;-64
2021/10/03 01:10:36;;;;;;;6.40;3.88;;;12.30;80.20;;;;;;5095752;28;20228;-64
2021/10/03 01:13:09;;;;;;;6.20;4.03;;;12.20;79.20;;;;;;5095573;28;20197;-64
2021/10/03 01:15:37;;;;;;;5.68;3.75;;;12.30;80.00;;;;;;5095502;28;20197;-64
2021/10/03 01:18:05;;;;;;;4.38;3.65;;;12.20;79.80;;;;;;5095340;28;20189;-64
2021/10/03 01:20:34;;;;;;;5.70;3.28;;;12.20;79.10;;;;;;5095316;28;20279;-64
2021/10/03 01:23:04;;;;;;;4.03;2.85;;;12.20;78.90;;;;;;5094249;28;20582;-64
2021/10/03 01:25:32;;;;;;;4.80;4.18;;;12.20;78.50;;;;;;5094805;28;20185;-64
2021/10/03 01:27:59;;;;;;;5.05;3.17;;;12.20;78.60;;;;;;5095115;28;20624;-64
2021/10/03 01:30:27;;;;;;;5.03;3.53;;;12.10;78.60;;;;;;5094981;28;20191;-64
2021/10/03 01:32:59;;;;;;;4.95;3.90;;;12.10;79.40;;;;;;5094615;28;20199;-65
2021/10/03 01:35:26;;;;;;;5.55;3.50;;;12.10;78.90;;;;;;5095420;28;20196;-64
2021/10/03 01:37:56;;;;;;;3.65;3.22;;;12.10;79.80;;;;;;5094605;28;20192;-65
2021/10/03 01:40:25;;;;;;;7.72;4.22;;;12.10;79.10;;;;;;5095124;28;20185;-65
2021/10/03 01:42:53;;;;;;;6.72;4.13;;;12.00;79.20;;;;;;5094759;28;20197;-65
2021/10/03 01:45:22;;;;;;;5.55;3.80;;;12.00;80.20;;;;;;5094870;28;20224;-65
2021/10/03 01:48:08;;;;;;;4.00;3.40;;;11.90;80.10;;;;;;5094725;28;20263;-65
2021/10/03 01:50:38;;;;;;;5.50;3.60;;;11.90;80.20;;;;;;5094659;28;20229;-64
2021/10/03 01:53:07;;;;;;;3.97;2.92;;;11.90;80.10;;;;;;5094993;28;20193;-64
2021/10/03 01:55:36;;;;;;;3.67;2.90;;;11.90;79.80;;;;;;5094868;28;20661;-64
2021/10/03 01:58:04;;;;;;;5.78;3.90;;;11.80;79.40;;;;;;5094544;28;20232;-64
2021/10/03 02:00:31;;;;;;;4.55;3.28;;;11.80;79.40;;;;;;5094652;28;20185;-64
2021/10/03 02:03:00;;;;;;;5.00;3.08;;;11.70;79.50;;;;;;5094645;28;20199;-64
2021/10/03 02:05:28;;;;;;;10.77;2.90;;;11.70;79.50;;;;;;5094454;28;20625;-65
2021/10/03 02:07:55;;;;;;;6.47;3.08;;;11.70;79.80;;;;;;5094304;28;20185;-64
2021/10/03 02:10:25;;;;;;;4.13;2.97;;;11.70;80.50;;;;;;5093880;28;20299;-65
2021/10/03 02:12:54;;;;;;;5.70;3.53;;;11.60;80.70;;;;;;5094559;28;20703;-64
2021/10/03 02:15:22;;;;;;;4.75;2.80;;;11.60;80.60;;;;;;5094304;28;20276;-65
2021/10/03 02:17:50;;;;;;;4.15;2.60;;;11.50;80.80;;;;;;5094521;28;20610;-65
2021/10/03 02:20:19;;;;;;;7.22;3.45;;;11.50;80.40;;;;;;5094425;28;20192;-64
2021/10/03 02:22:49;;;;;;;4.95;2.60;;;11.50;79.90;;;;;;5094195;28;20674;-66
2021/10/03 02:25:18;;;;;;;3.20;2.50;;;11.40;79.00;;;;;;5094048;28;20203;-64
2021/10/03 02:27:45;;;;;;;4.95;3.22;;;11.40;79.30;;;;;;5094154;28;20280;-64
2021/10/03 02:30:14;;;;;;;4.82;2.47;;;11.40;79.40;;;;;;5093984;28;20303;-64
2021/10/03 02:32:41;;;;;;;4.43;2.88;;;11.40;80.00;;;;;;5094250;28;20596;-64
2021/10/03 02:35:11;;;;;;;4.95;3.10;;;11.40;80.40;;;;;;5094129;28;20211;-64
2021/10/03 02:37:41;;;;;;;3.00;2.67;;;11.40;80.20;;;;;;5094019;28;20207;-64
2021/10/03 02:40:11;;;;;;;6.72;3.45;;;11.40;78.80;;;;;;5093561;28;20185;-64
2021/10/03 02:42:39;;;;;;;4.82;3.22;;;11.30;79.40;;;;;;5093697;28;20203;-64
2021/10/03 02:45:08;;;;;;;4.93;3.50;;;11.20;79.80;;;;;;5093582;28;20284;-64
2021/10/03 02:47:38;;;;;;;4.25;3.25;;;11.20;80.70;;;;;;5093586;28;20221;-64
2021/10/03 02:50:07;;;;;;;4.25;3.17;;;11.10;81.40;;;;;;5093672;28;20311;-64
2021/10/03 02:52:34;;;;;;;4.20;3.33;;;11.10;81.10;;;;;;5093699;28;20225;-63
2021/10/03 02:55:01;;;;;;;4.72;3.28;;;11.10;81.40;;;;;;5093567;28;20191;-64
2021/10/03 02:57:28;;;;;;;5.50;3.75;;;11.10;81.70;;;;;;5093519;28;20196;-64
2021/10/03 02:59:55;;;;;;;3.22;2.55;;;11.10;82.00;;;;;;5093307;28;20613;-64
2021/10/03 03:02:23;;;;;;;4.13;2.67;;;11.10;81.90;;;;;;5093120;28;20193;-64
2021/10/03 03:04:51;;;;;;;4.10;3.00;;;11.10;81.30;;;;;;5093348;28;20667;-65
2021/10/03 03:07:18;;;;;;;3.22;2.78;;;11.10;81.50;;;;;;5093393;28;20632;-64
2021/10/03 03:09:48;;;;;;;4.38;3.60;;;11.10;81.50;;;;;;5093306;28;20306;-64
2021/10/03 03:12:15;;;;;;;3.63;2.95;;;11.10;81.20;;;;;;5093570;28;20219;-64
2021/10/03 03:14:42;;;;;;;3.72;2.72;;;11.00;80.40;;;;;;5093410;28;20276;-64
2021/10/03 03:17:16;;;;;;;3.35;2.85;;;10.90;80.10;;;;;;5093232;28;20617;-64
2021/10/03 03:19:43;;;;;;;6.10;2.85;;;11.00;80.90;;;;;;5093026;28;20214;-64
2021/10/03 03:22:13;;;;;;;5.72;3.80;;;10.90;81.10;;;;;;5093053;28;20602;-64
2021/10/03 03:24:40;;;;;;;4.30;3.22;;;10.90;81.50;;;;;;5093214;28;20272;-64
2021/10/03 03:27:08;;;;;;;5.38;3.85;;;11.00;81.70;;;;;;5093088;28;20279;-64
2021/10/03 03:29:37;;;;;;;4.97;3.22;;;11.00;81.40;;;;;;5092979;28;20220;-64
2021/10/03 03:32:05;;;;;;;5.13;3.55;;;10.90;81.10;;;;;;5092676;28;20189;-64
2021/10/03 03:34:32;;;;;;;6.30;3.45;;;10.90;81.30;;;;;;5093034;28;20280;-64
2021/10/03 03:36:59;;;;;;;7.25;2.78;;;11.00;81.40;;;;;;5092945;28;20189;-65
2021/10/03 03:39:28;;;;;;;7.80;4.43;;;10.90;80.90;;;;;;5092734;28;20317;-65
2021/10/03 03:41:55;;;;;;;5.82;3.83;;;10.90;81.10;;;;;;5092498;28;20203;-65
2021/10/03 03:44:22;;;;;;;5.30;3.35;;;10.90;80.40;;;;;;5092515;28;20220;-64
2021/10/03 03:46:49;;;;;;;6.00;3.38;;;10.90;80.20;;;;;;5092289;28;20280;-64
2021/10/03 03:49:16;;;;;;;4.80;3.67;;;10.80;79.90;;;;;;5092833;28;20227;-65
2021/10/03 03:51:45;;;;;;;5.88;4.30;;;10.80;79.80;;;;;;5092546;28;20218;-63
2021/10/03 03:54:13;;;;;;;4.82;4.00;;;10.80;80.40;;;;;;5092874;28;20671;-64
2021/10/03 03:56:41;;;;;;;5.03;4.40;;;10.80;81.10;;;;;;5092557;28;20195;-64
2021/10/03 03:59:09;;;;;;;5.63;3.90;;;10.80;81.10;;;;;;5092608;28;20285;-65
2021/10/03 04:01:36;;;;;;;6.28;3.28;;;10.80;80.70;;;;;;5092763;28;20193;-64
2021/10/03 04:04:03;;;;;;;5.57;4.18;;;10.70;80.80;;;;;;5092701;28;20280;-64
2021/10/03 04:06:30;;;;;;;4.80;3.95;;;10.70;80.80;;;;;;5092941;28;20193;-64
2021/10/03 04:08:57;;;;;;;4.82;3.53;;;10.70;80.70;;;;;;5093030;28;20645;-64
2021/10/03 04:11:24;;;;;;;4.00;3.38;;;10.70;80.60;;;;;;5092729;28;20189;-64
2021/10/03 04:13:52;;;;;;;5.40;3.60;;;10.70;80.50;;;;;;5092776;28;20728;-65
2021/10/03 04:16:19;;;;;;;6.13;4.00;;;10.70;80.80;;;;;;5092426;28;20196;-66
2021/10/03 04:18:46;;;;;;;6.18;3.22;;;10.70;80.90;;;;;;5092975;28;20283;-64
2021/10/03 04:21:13;;;;;;;7.18;4.22;;;10.70;80.50;;;;;;5092424;28;20224;-64
2021/10/03 04:23:41;;;;;;;5.05;4.20;;;10.60;80.70;;;;;;5092989;28;20280;-63
2021/10/03 04:26:08;;;;;;;5.25;3.47;;;10.60;81.30;;;;;;5092790;28;20272;-64
2021/10/03 04:28:35;;;;;;;6.57;4.28;;;10.60;81.90;;;;;;5092671;28;20275;-64
2021/10/03 04:31:04;;;;;;;4.90;3.60;;;10.60;81.80;;;;;;5092776;28;20220;-64
2021/10/03 04:33:31;;;;;;;3.88;3.10;;;10.60;81.50;;;;;;5092472;28;20622;-64
2021/10/03 04:35:57;;;;;;;4.20;2.97;;;10.50;81.30;;;;;;5092554;28;20219;-64
2021/10/03 04:38:24;;;;;;;4.22;3.30;;;10.60;81.30;;;;;;5092498;28;20275;-63
2021/10/03 04:40:52;;;;;;;8.00;4.15;;;10.60;81.00;;;;;;5092581;28;20224;-63
2021/10/03 04:43:18;;;;;;;5.07;3.63;;;10.60;81.50;;;;;;5092499;28;20237;-64
2021/10/03 04:45:46;;;;;;;6.57;3.72;;;10.60;82.20;;;;;;5092535;28;20193;-64
2021/10/03 04:48:14;;;;;;;7.47;4.35;;;10.60;82.40;;;;;;5092345;28;20259;-65
2021/10/03 04:50:41;;;;;;;6.32;4.47;;;10.60;82.40;;;;;;5092168;28;20223;-64
2021/10/03 04:53:10;;;;;;;7.00;4.53;;;10.60;82.60;;;;;;5092191;28;20280;-64
2021/10/03 04:55:41;;;;;;;6.22;3.88;;;10.60;82.90;;;;;;5092510;28;20191;-64
2021/10/03 04:58:08;;;;;;;6.25;3.97;;;10.60;82.40;;;;;;5095126;28;20185;-64
2021/10/03 05:00:40;;;;;;;5.38;4.13;;;10.60;82.10;;;;;;5095968;28;20281;-64
2021/10/03 05:03:07;;;;;;;11.05;3.60;;;10.60;81.70;;;;;;5096195;28;20185;-64
2021/10/03 05:05:36;;;;;;;4.05;2.60;;;10.60;81.40;;;;;;5096003;28;20562;-65
2021/10/03 05:08:03;;;;;;;5.78;3.03;;;10.50;80.90;;;;;;5096093;28;20535;-65
2021/10/03 05:10:30;;;;;;;4.28;3.88;;;10.60;81.50;;;;;;5095523;28;20224;-65
2021/10/03 05:12:57;;;;;;;7.55;3.13;;;10.50;81.60;;;;;;5095662;28;20280;-66
2021/10/03 05:15:24;;;;;;;4.85;3.25;;;10.60;81.20;;;;;;5096043;28;20271;-66
2021/10/03 05:17:52;;;;;;;4.35;3.30;;;10.50;81.30;;;;;;5095504;28;20276;-65
2021/10/03 05:20:21;;;;;;;4.05;3.22;;;10.50;81.30;;;;;;5096034;28;20280;-64
2021/10/03 05:22:49;;;;;;;3.05;2.35;;;10.40;81.40;;;;;;5095675;28;20280;-64
2021/10/03 05:25:16;;;;;;;3.10;2.60;;;10.40;82.00;;;;;;5095517;28;20227;-64
2021/10/03 05:27:44;;;;;;;5.20;3.08;;;10.40;82.10;;;;;;5094913;28;20189;-67
2021/10/03 05:30:11;;;;;;;6.45;4.90;;;10.40;82.10;;;;;;5092171;28;20244;-65
2021/10/03 05:32:45;;;;;;;3.78;2.55;;;10.40;82.50;;;;;;5094462;28;20197;-64
2021/10/03 05:35:12;;;;;;;3.58;2.50;;;10.40;82.40;;;;;;5094715;28;20203;-64
2021/10/03 05:37:44;;;;;;;4.00;3.00;;;10.40;81.60;;;;;;5106498;28;20188;-64
2021/10/03 05:40:13;;;;;;;3.40;2.90;;;10.40;82.00;;;;;;5112089;28;20185;-64
2021/10/03 05:42:40;;;;;;;3.75;2.80;;;10.40;82.30;;;;;;5112246;28;20245;-64
2021/10/03 05:45:08;;;;;;;4.15;3.10;;;10.50;82.80;;;;;;5110631;28;20197;-64
2021/10/03 05:47:38;;;;;;;4.40;2.22;;;10.50;83.00;;;;;;5094192;28;20229;-64
2021/10/03 05:50:07;;;;;;;6.03;3.15;;;10.70;83.70;;;;;;5094356;28;20217;-64
2021/10/03 05:52:39;;;;;;;4.38;2.60;;;10.80;84.10;;;;;;5094376;28;20197;-64
2021/10/03 05:55:09;;;;;;;6.18;3.40;;;10.80;84.50;;;;;;5094423;28;20202;-64
2021/10/03 05:57:38;;;;;;;10.70;7.75;;;10.90;84.70;;;;;;5094087;28;20202;-64
2021/10/03 06:00:07;;;;;;;4.18;2.80;;;11.00;84.90;;;;;;5107199;28;20214;-65
2021/10/03 06:02:34;;;;;;;3.10;2.55;;;11.10;85.10;;;;;;5094132;28;20934;-64
2021/10/03 06:05:01;;;;;;;3.40;2.55;;;11.10;83.90;;;;;;5094372;28;20225;-64
2021/10/03 06:07:29;;;;;;;4.97;2.20;;;11.20;83.70;;;;;;5093418;28;20250;-65
2021/10/03 06:09:58;;;;;;;7.32;2.60;;;11.30;84.00;;;;;;5094062;28;20578;-66
2021/10/03 06:12:25;;;;;;;9.60;3.13;;;11.50;84.70;;;;;;5094129;28;20193;-64
2021/10/03 06:14:54;;;;;;;3.55;2.92;;;11.60;85.00;;;;;;5097891;28;20216;-64
2021/10/03 06:17:21;;;;;;;3.25;2.50;;;11.70;84.00;;;;;;5093266;28;20185;-64
2021/10/03 06:19:49;;;;;;;4.13;2.60;;;11.80;83.50;;;;;;5086350;28;20250;-65
2021/10/03 06:22:21;;;;;;;5.53;2.90;;;11.90;83.10;;;;;;5089855;28;20199;-65
2021/10/03 06:24:48;;;;;;;3.88;2.05;;;12.10;84.20;;;;;;5093004;28;20224;-65
2021/10/03 06:27:15;;;;;;;3.92;2.50;;;12.30;83.90;;;;;;5092974;28;20193;-64
2021/10/03 06:29:42;;;;;;;3.25;2.47;;;12.50;84.00;;;;;;5093562;28;20211;-64
2021/10/03 06:32:11;;;;;;;4.03;2.55;;;12.80;83.60;;;;;;5093029;28;20287;-64
2021/10/03 06:34:38;;;;;;;3.10;2.35;;;13.10;83.20;;;;;;5108534;28;20212;-65
2021/10/03 06:37:05;;;;;;;4.05;2.97;;;13.40;82.70;;;;;;5094123;28;20188;-64
2021/10/03 06:39:33;;;;;;;4.38;3.03;;;13.80;82.20;;;;;;5093415;28;20220;-64
2021/10/03 06:42:00;;;;;;;37.95;27.95;;;14.20;81.10;;;;;;5092761;28;20221;-64
2021/10/03 06:44:27;;;;;;;15.18;10.15;;;14.80;79.80;;;;;;5093599;28;20588;-65
2021/10/03 06:46:54;;;;;;;4.73;3.60;;;15.40;78.20;;;;;;5093019;28;20224;-64
2021/10/03 06:49:22;;;;;;;4.90;3.43;;;16.10;75.40;;;;;;5093306;28;20518;-65
2021/10/03 06:51:49;;;;;;;4.50;2.43;;;16.70;74.90;;;;;;5093322;28;20482;-66
2021/10/03 06:54:18;;;;;;;2.97;2.30;;;17.30;72.20;;;;;;5092902;28;20439;-65
2021/10/03 06:56:45;;;;;;;2.70;2.10;;;17.70;69.10;;;;;;5096728;28;20466;-64
2021/10/03 06:59:12;;;;;;;2.97;2.13;;;18.10;67.40;;;;;;5093390;28;20489;-64
2021/10/03 07:01:39;;;;;;;4.43;3.50;;;18.60;66.10;;;;;;5093093;28;20531;-64
2021/10/03 07:04:06;;;;;;;6.33;5.23;;;19.20;63.80;;;;;;5093775;28;20439;-64
2021/10/03 07:06:34;;;;;;;6.23;4.37;;;20.40;61.60;;;;;;5093273;28;20522;-65
2021/10/03 07:09:01;;;;;;;7.40;4.43;;;21.70;57.20;;;;;;5093865;28;20452;-64
2021/10/03 07:11:28;;;;;;;3.73;2.90;;;23.20;54.90;;;;;;5093685;28;20577;-65
2021/10/03 07:13:55;;;;;;;5.40;2.40;;;24.70;52.10;;;;;;5093214;28;20443;-65
2021/10/03 07:16:21;;;;;;;7.30;3.40;;;25.90;47.80;;;;;;5093945;28;20439;-65
2021/10/03 07:18:48;;;;;;;4.40;2.93;;;26.80;42.70;;;;;;5093133;28;20530;-65
2021/10/03 07:21:15;;;;;;;3.73;2.43;;;26.50;41.90;;;;;;5092911;28;20447;-65
2021/10/03 07:23:44;;;;;;;5.43;2.20;;;26.40;42.60;;;;;;5093473;28;20484;-65
2021/10/03 07:26:11;;;;;;;6.57;2.80;;;26.90;41.00;;;;;;5093638;28;20859;-65
2021/10/03 07:28:39;;;;;;;3.17;2.10;;;27.60;41.90;;;;;;5093403;28;20439;-65
2021/10/03 07:31:06;;;;;;;5.33;2.17;;;29.10;39.20;;;;;;5093545;28;20593;-65
2021/10/03 07:33:34;;;;;;;3.70;2.00;;;29.60;37.50;;;;;;5093409;28;20463;-65
2021/10/03 07:36:01;;;;;;;3.73;2.00;;;30.20;35.10;;;;;;5093193;28;20525;-65
2021/10/03 07:38:27;;;;;;;3.10;2.20;;;31.60;32.70;;;;;;5093030;28;20534;-66
2021/10/03 07:40:56;;;;;;;3.43;2.20;;;33.50;30.90;;;;;;5093480;28;20795;-66
2021/10/03 07:43:23;;;;;;;3.90;1.90;;;35.20;29.40;;;;;;5093128;28;20436;-63
2021/10/03 07:45:49;;;;;;;3.00;2.07;;;36.60;27.40;;;;;;5093220;28;20442;-66
2021/10/03 07:48:16;;;;;;;13.10;11.77;;;37.70;25.60;;;;;;5092600;28;20461;-65
2021/10/03 07:50:44;;;;;;;3.60;3.00;;;38.70;24.80;;;;;;5092810;28;20483;-64
2021/10/03 07:53:11;;;;;;;3.47;2.47;;;39.70;22.70;;;;;;5093210;28;20467;-66
2021/10/03 07:55:38;;;;;;;2.70;2.00;;;40.70;19.70;;;;;;5093006;28;20465;-65
2021/10/03 07:58:07;;;;;;;2.70;2.30;;;41.50;20.60;;;;;;5093092;28;20441;-66
2021/10/03 08:00:35;;;;;;;3.40;2.17;;;42.20;19.70;;;;;;5093149;28;20443;-65
2021/10/03 08:03:03;;;;;;;2.63;1.93;;;42.80;18.20;;;;;;5093044;28;20860;-65
2021/10/03 08:05:30;;;;;;;2.63;2.10;;;43.50;17.00;;;;;;5092918;28;21104;-66
2021/10/03 08:07:59;;;;;;;2.70;1.93;;;44.00;16.90;;;;;;5093118;28;20743;-65
2021/10/03 08:10:26;;;;;;;4.43;2.17;;;44.40;16.70;;;;;;5093107;28;20426;-66
2021/10/03 08:12:53;;;;;;;2.83;1.73;;;45.20;16.10;;;;;;5092976;28;20442;-65
2021/10/03 08:15:21;;;;;;;2.70;2.17;;;46.20;14.20;;;;;;5093103;28;20477;-66
2021/10/03 08:17:48;;;;;;;2.93;1.83;;;46.40;13.90;;;;;;5093076;28;20909;-63
2021/10/03 08:20:15;;;;;;;2.80;2.13;;;46.60;14.00;;;;;;5093049;28;20525;-64
2021/10/03 08:22:42;;;;;;;3.00;1.90;;;47.10;12.80;;;;;;5092970;28;20474;-67
2021/10/03 08:25:09;;;;;;;3.00;1.90;;;47.20;11.00;;;;;;5092827;28;20439;-63
2021/10/03 08:27:37;;;;;;;2.30;1.73;;;47.00;12.00;;;;;;5092938;28;20446;-64
2021/10/03 08:30:06;;;;;;;2.67;1.60;;;47.50;12.20;;;;;;5092869;28;20439;-64
2021/10/03 08:32:35;;;;;;;2.50;1.50;;;47.80;11.30;;;;;;5096002;28;20533;-64
2021/10/03 08:35:02;;;;;;;4.33;2.13;;;47.80;10.90;;;;;;5096597;28;20439;-65
2021/10/03 08:37:28;;;;;;;4.00;1.90;;;47.60;10.20;;;;;;5096519;28;20530;-65
2021/10/03 08:39:55;;;;;;;4.33;2.57;;;47.70;9.40;;;;;;5096439;28;20525;-66
2021/10/03 08:42:22;;;;;;;3.80;2.00;;;47.90;9.90;;;;;;5096353;28;20438;-65
2021/10/03 08:44:49;;;;;;;2.43;1.90;;;48.40;9.50;;;;;;5096416;28;20473;-66
2021/10/03 08:47:16;;;;;;;2.67;1.70;;;48.60;9.30;;;;;;5096419;28;20473;-65
2021/10/03 08:49:45;;;;;;;2.30;1.63;;;48.30;9.60;;;;;;5096170;28;20510;-65
2021/10/03 08:52:12;;;;;;;3.17;1.67;;;48.70;9.80;;;;;;5095929;28;20485;-64
2021/10/03 08:54:40;;;;;;;1.97;1.50;;;49.50;10.00;;;;;;5096240;28;20963;-65
2021/10/03 08:57:08;;;;;;;2.43;1.70;;;49.70;9.70;;;;;;5095898;28;20530;-65
2021/10/03 08:59:35;;;;;;;2.67;1.70;;;49.20;8.20;;;;;;5096205;28;20438;-65
2021/10/03 09:02:03;;;;;;;2.87;2.00;;;48.80;8.70;;;;;;5095966;28;20445;-65
2021/10/03 09:04:33;;;;;;;3.30;1.70;;;47.60;9.10;;;;;;5096091;28;20438;-64
2021/10/03 09:07:05;;;;;;;2.70;1.63;;;47.80;9.10;;;;;;5095501;28;20922;-64
2021/10/03 09:09:55;;;;;;;3.50;1.60;;;48.30;9.90;;;;;;5095951;28;20461;-65
2021/10/03 09:12:24;;;;;;;2.40;1.40;;;49.10;8.90;;;;;;5095698;28;20478;-65
2021/10/03 09:14:51;;;;;;;3.13;1.90;;;49.20;8.50;;;;;;5095750;28;20482;-66
2021/10/03 09:17:18;;;;;;;2.73;1.50;;;49.60;9.00;;;;;;5095744;28;20430;-64
2021/10/03 09:20:11;;;;;;;3.20;1.90;;;50.10;8.00;;;;;;5095898;28;20485;-64
2021/10/03 09:22:58;;;;;;;2.53;1.77;;;49.30;8.10;;;;;;5095440;28;20530;-64
2021/10/03 09:25:37;;;;;;;2.47;1.80;;;49.40;8.40;;;;;;5095665;28;20443;-65
2021/10/03 09:28:08;;;;;;;2.23;1.87;;;50.10;7.80;;;;;;5095251;28;20517;-65
2021/10/03 09:30:51;;;;;;;3.43;1.60;;;49.90;8.10;;;;;;5095781;28;20445;-64
2021/10/03 09:33:18;;;;;;;3.33;1.93;;;50.10;8.30;;;;;;5095620;28;20910;-64
2021/10/03 09:35:56;;;;;;;2.20;1.53;;;50.10;7.50;;;;;;5095329;28;20451;-65
2021/10/03 09:38:24;;;;;;;2.63;1.70;;;50.70;8.00;;;;;;5095732;28;20446;-65
2021/10/03 09:41:01;;;;;;;2.30;1.67;;;51.80;7.60;;;;;;5095627;28;20440;-66
2021/10/03 09:43:40;;;;;;;2.23;1.80;;;52.20;7.20;;;;;;5094480;28;20966;-65
2021/10/03 09:46:07;;;;;;;3.70;1.77;;;52.80;7.00;;;;;;5095343;28;20435;-65
2021/10/03 09:48:48;;;;;;;2.77;1.60;;;52.60;7.20;;;;;;5095079;28;20499;-65
2021/10/03 09:51:16;;;;;;;1.93;1.37;;;53.50;6.90;;;;;;5095299;28;20483;-64
2021/10/03 09:53:45;;;;;;;2.20;1.43;;;54.20;6.50;;;;;;5095291;28;20435;-65
2021/10/03 09:56:13;;;;;;;3.43;1.70;;;54.40;6.50;;;;;;5095209;28;20439;-65
2021/10/03 09:58:41;;;;;;;2.57;2.10;;;53.50;7.10;;;;;;5095219;28;20461;-65
2021/10/03 10:01:08;;;;;;;3.27;2.23;;;53.80;7.60;;;;;;5095008;28;20467;-65
2021/10/03 10:03:37;;;;;;;4.57;2.00;;;53.20;6.30;;;;;;5095109;28;21024;-65
2021/10/03 10:06:05;;;;;;;2.33;1.70;;;53.60;7.10;;;;;;5094888;28;20789;-65
2021/10/03 10:08:32;;;;;;;2.80;1.77;;;54.00;6.50;;;;;;5095113;28;20797;-65
2021/10/03 10:11:06;;;;;;;2.17;1.70;;;54.00;6.60;;;;;;5094703;28;20925;-65
2021/10/03 10:13:35;;;;;;;5.07;1.77;;;54.00;6.50;;;;;;5095045;28;20467;-65
2021/10/03 10:16:31;;;;;;;2.90;1.87;;;53.90;6.90;;;;;;5094543;28;20457;-65
2021/10/03 10:19:28;;;;;;;2.13;1.67;;;53.70;6.20;;;;;;5094692;28;20519;-65
2021/10/03 10:22:38;;;;;;;4.80;1.60;;;53.10;6.30;;;;;;5012128;28;20510;-65
2021/10/03 10:25:07;;;;;;;2.83;1.73;;;52.50;7.10;;;;;;5094723;28;20442;-65
2021/10/03 10:27:59;;;;;;;5.67;1.90;;;52.80;6.90;;;;;;5094582;28;20518;-65
2021/10/03 10:30:26;;;;;;;2.80;1.80;;;52.10;7.30;;;;;;5094597;28;20435;-65
2021/10/03 10:33:17;;;;;;;2.87;1.57;;;53.00;7.40;;;;;;5094370;28;20948;-65
2021/10/03 10:35:45;;;;;;;4.20;1.50;;;54.00;6.90;;;;;;5094348;28;20782;-65
2021/10/03 10:38:22;;;;;;;2.47;1.80;;;54.00;6.70;;;;;;5094476;28;20926;-65
2021/10/03 10:40:51;;;;;;;4.07;1.33;;;53.60;7.10;;;;;;5094756;28;20534;-65
2021/10/03 10:43:46;;;;;;;2.20;1.60;;;52.60;6.60;;;;;;5094056;28;20574;-64
2021/10/03 10:46:51;;;;;;;1.80;1.20;;;51.90;6.60;;;;;;5094352;28;20435;-64
2021/10/03 10:49:35;;;;;;;1.73;1.30;;;51.30;7.20;;;;;;5094325;28;20438;-64
2021/10/03 10:52:34;;;;;;;2.10;1.40;;;50.50;7.70;;;;;;5094225;28;21043;-64
2021/10/03 10:55:37;;;;;;;2.97;1.97;;;50.00;7.20;;;;;;5093267;28;20462;-64
2021/10/03 10:58:20;;;;;;;4.73;3.20;;;49.60;7.70;;;;;;5094111;28;20478;-65
2021/10/03 11:01:00;;;;;;;2.87;1.83;;;49.80;7.80;;;;;;5093906;28;20439;-64
2021/10/03 11:03:55;;;;;;;2.10;1.50;;;50.30;7.60;;;;;;5094008;28;20504;-65
2021/10/03 11:07:02;;;;;;;2.20;1.53;;;50.30;7.70;;;;;;5076025;28;20790;-66
2021/10/03 11:09:53;;;;;;;2.30;1.30;;;50.80;8.10;;;;;;5093949;28;20457;-64
2021/10/03 11:12:32;;;;;;;2.20;1.60;;;50.40;7.30;;;;;;5093837;28;20534;-65
2021/10/03 11:15:29;;;;;;;2.00;1.40;;;47.70;8.00;;;;;;5093730;28;20439;-64
2021/10/03 11:18:04;;;;;;;3.43;1.87;;;47.30;8.60;;;;;;5086912;28;20439;-64
2021/10/03 11:20:31;;;;;;;2.00;1.30;;;48.20;9.30;;;;;;5093489;28;20449;-65
2021/10/03 11:22:58;;;;;;;2.67;1.87;;;48.90;8.60;;;;;;5093597;28;20478;-65
2021/10/03 11:25:28;;;;;;;2.70;1.53;;;48.70;9.20;;;;;;5093726;28;20793;-66
2021/10/03 11:27:55;;;;;;;2.37;1.53;;;49.10;9.30;;;;;;5093365;28;20438;-65
2021/10/03 11:30:23;;;;;;;2.10;1.20;;;49.60;8.50;;;;;;5093171;28;20965;-65
2021/10/03 11:32:50;;;;;;;2.10;1.10;;;50.00;8.50;;;;;;5093474;28;20525;-66
2021/10/03 11:35:18;;;;;;;2.27;1.43;;;50.40;8.20;;;;;;5093236;28;20514;-65
2021/10/03 11:37:48;;;;;;;2.03;1.40;;;50.60;8.10;;;;;;5093558;28;20520;-64
2021/10/03 11:40:18;;;;;;;1.93;1.30;;;50.30;8.10;;;;;;5093652;28;20434;-64
2021/10/03 11:42:47;;;;;;;3.17;1.67;;;48.90;8.10;;;;;;5093395;28;20981;-64
2021/10/03 11:45:20;;;;;;;2.00;1.40;;;47.90;8.80;;;;;;5093332;28;20843;-64
2021/10/03 11:47:48;;;;;;;4.07;1.53;;;47.50;9.30;;;;;;5093220;28;20514;-64
2021/10/03 11:50:21;;;;;;;2.40;1.27;;;47.70;9.10;;;;;;5093489;28;20437;-64
2021/10/03 11:52:48;;;;;;;4.87;1.83;;;47.50;9.30;;;;;;5093202;28;20435;-64
2021/10/03 11:55:18;;;;;;;5.37;1.60;;;47.20;9.50;;;;;;5093075;28;20982;-64
2021/10/03 11:57:46;;;;;;;2.73;1.47;;;46.60;9.60;;;;;;5093208;28;20493;-64
2021/10/03 12:00:16;;;;;;;2.37;1.37;;;46.60;9.80;;;;;;5092560;28;20451;-64
2021/10/03 12:02:45;;;;;;;2.70;1.80;;;47.70;9.30;;;;;;5093007;28;20565;-64
2021/10/03 12:05:16;;;;;;;2.90;1.20;;;49.20;8.90;;;;;;5092979;28;20522;-65
2021/10/03 12:07:45;;;;;;;2.20;1.50;;;49.70;8.10;;;;;;5097093;28;20435;-64
2021/10/03 12:10:13;;;;;;;2.37;1.83;;;49.80;8.00;;;;;;5096911;28;20533;-64
2021/10/03 12:13:02;;;;;;;2.30;1.50;;;50.20;8.10;;;;;;5096883;28;21111;-65
2021/10/03 12:15:54;;;;;;;2.40;1.33;;;49.20;8.00;;;;;;5097329;28;20471;-64
2021/10/03 12:18:43;;;;;;;2.57;1.30;;;48.10;8.90;;;;;;5096826;28;20469;-65
2021/10/03 12:21:20;;;;;;;2.40;1.57;;;47.70;9.00;;;;;;5097112;28;20477;-64
2021/10/03 12:23:52;;;;;;;2.30;1.13;;;47.10;9.10;;;;;;5097059;28;20482;-64
2021/10/03 12:26:28;;;;;;;2.20;1.73;;;47.00;9.30;;;;;;5096814;28;20542;-64
2021/10/03 12:29:08;;;;;;;4.43;1.97;;;48.10;9.70;;;;;;5096839;28;20434;-64
2021/10/03 12:31:47;;;;;;;2.07;1.33;;;47.90;8.90;;;;;;5096924;28;20988;-64
2021/10/03 12:34:40;;;;;;;3.27;1.90;;;48.20;9.00;;;;;;5096890;28;20533;-64
2021/10/03 12:37:09;;;;;;;3.67;1.80;;;48.00;9.20;;;;;;5096658;28;20514;-66
2021/10/03 12:39:39;;;;;;;2.70;1.37;;;47.90;9.90;;;;;;5096543;28;20527;-64
2021/10/03 12:42:10;;;;;;;2.20;1.40;;;48.50;9.80;;;;;;5096546;28;20529;-64
2021/10/03 12:44:38;;;;;;;2.60;1.57;;;48.70;9.10;;;;;;5096473;28;20435;-65
2021/10/03 12:47:06;;;;;;;2.10;1.37;;;48.40;9.50;;;;;;5096194;28;20898;-65
2021/10/03 12:49:35;;;;;;;2.60;1.60;;;48.60;8.50;;;;;;5096435;28;20526;-65
2021/10/03 12:52:02;;;;;;;1.93;1.20;;;48.20;8.90;;;;;;5096419;28;20443;-65
2021/10/03 12:54:29;;;;;;;2.93;1.50;;;47.30;8.70;;;;;;5096202;28;20521;-65
2021/10/03 12:56:57;;;;;;;3.00;1.90;;;46.10;9.40;;;;;;5096414;28;20861;-64
2021/10/03 12:59:25;;;;;;;3.70;1.70;;;43.30;9.90;;;;;;5096515;28;20449;-65
2021/10/03 13:01:52;;;;;;;7.70;1.70;;;40.70;11.20;;;;;;5096111;28;20522;-64
2021/10/03 13:04:19;;;;;;;2.60;1.73;;;38.40;13.40;;;;;;5096176;28;20470;-63
2021/10/03 13:06:46;;;;;;;4.17;1.70;;;36.80;14.70;;;;;;5096112;28;20462;-63